CA-0285 weather

CLOSED Petrel Airport
Manitoba, Canada

Public forecast

Using degrees Celsius for public forecast. Weather courtesy of forecast.io.

METAR (pilot weather report)

Closest report is Brandon Municipal Airport, 23.5 nm (43.5 km) W. Retrieved 2019/05/21 07:00 UTC (59 minutes ago):

CYBR 210700Z 06007KT 15SM SKC 07/M03 A3011 RMK SLP208

TAF (pilot weather forecast)

Closest forecast is Brandon Municipal Airport, 23.5 nm (43.5 km) W. Retrieved 2019/05/21 06:42 UTC (1 hour ago):

TAF CYBR 210538Z 2106/2118 06008KT P6SM FEW250 BECMG 2108/2110 VRB03KT BECMG 2113/2115 08010KT FM211700 09015KT P6SM SCT170 RMK NXT FCST BY 211200Z